sensor_id;sensor_type;location;lat;lon;timestamp;pressure;altitude;pressure_sealevel;temperature;humidity
59873;BME280;50750;51.636;4.948;2022-11-21T00:00:46;100708.77;;;11.58;61.20
59873;BME280;50750;51.636;4.948;2022-11-21T00:03:14;100709.64;;;11.59;61.14
59873;BME280;50750;51.636;4.948;2022-11-21T00:05:43;100714.90;;;11.58;61.22
59873;BME280;50750;51.636;4.948;2022-11-21T00:08:11;100711.58;;;11.58;61.24
59873;BME280;50750;51.636;4.948;2022-11-21T00:10:38;100705.63;;;11.58;61.17
59873;BME280;50750;51.636;4.948;2022-11-21T00:13:06;100695.82;;;11.57;61.20
59873;BME280;50750;51.636;4.948;2022-11-21T00:15:34;100698.83;;;11.57;61.21
59873;BME280;50750;51.636;4.948;2022-11-21T00:18:03;100699.36;;;11.57;61.46
59873;BME280;50750;51.636;4.948;2022-11-21T00:20:31;100703.06;;;11.56;61.41
59873;BME280;50750;51.636;4.948;2022-11-21T00:22:57;100699.15;;;11.57;61.26
59873;BME280;50750;51.636;4.948;2022-11-21T00:25:24;100702.81;;;11.58;61.20
59873;BME280;50750;51.636;4.948;2022-11-21T00:27:51;100706.29;;;11.59;61.23
59873;BME280;50750;51.636;4.948;2022-11-21T00:30:18;100705.36;;;11.60;61.15
59873;BME280;50750;51.636;4.948;2022-11-21T00:32:44;100708.30;;;11.61;61.22
59873;BME280;50750;51.636;4.948;2022-11-21T00:35:12;100707.17;;;11.63;61.13
59873;BME280;50750;51.636;4.948;2022-11-21T00:37:38;100707.52;;;11.64;61.19
59873;BME280;50750;51.636;4.948;2022-11-21T00:40:06;100712.93;;;11.64;61.18
59873;BME280;50750;51.636;4.948;2022-11-21T00:42:32;100716.04;;;11.65;61.09
59873;BME280;50750;51.636;4.948;2022-11-21T00:44:59;100713.92;;;11.66;61.12
59873;BME280;50750;51.636;4.948;2022-11-21T00:47:26;100712.52;;;11.66;61.16
59873;BME280;50750;51.636;4.948;2022-11-21T00:49:52;100711.63;;;11.66;60.88
59873;BME280;50750;51.636;4.948;2022-11-21T00:52:19;100709.70;;;11.66;61.05
59873;BME280;50750;51.636;4.948;2022-11-21T00:54:45;100700.59;;;11.66;61.03
59873;BME280;50750;51.636;4.948;2022-11-21T00:57:12;100697.43;;;11.65;61.11
59873;BME280;50750;51.636;4.948;2022-11-21T00:59:38;100702.67;;;11.66;61.10
59873;BME280;50750;51.636;4.948;2022-11-21T01:02:05;100704.64;;;11.65;61.11
59873;BME280;50750;51.636;4.948;2022-11-21T01:04:33;100700.62;;;11.65;61.14
59873;BME280;50750;51.636;4.948;2022-11-21T01:07:00;100696.42;;;11.64;61.00
59873;BME280;50750;51.636;4.948;2022-11-21T01:09:26;100697.64;;;11.65;61.08
59873;BME280;50750;51.636;4.948;2022-11-21T01:11:54;100698.91;;;11.64;61.11
59873;BME280;50750;51.636;4.948;2022-11-21T01:14:21;100698.41;;;11.63;61.11
59873;BME280;50750;51.636;4.948;2022-11-21T01:16:48;100701.73;;;11.63;61.10
59873;BME280;50750;51.636;4.948;2022-11-21T01:19:15;100694.92;;;11.63;61.05
59873;BME280;50750;51.636;4.948;2022-11-21T01:21:41;100688.59;;;11.63;61.11
59873;BME280;50750;51.636;4.948;2022-11-21T01:24:10;100685.08;;;11.63;61.23
59873;BME280;50750;51.636;4.948;2022-11-21T01:26:37;100686.15;;;11.63;61.18
59873;BME280;50750;51.636;4.948;2022-11-21T01:29:04;100681.95;;;11.62;61.27
59873;BME280;50750;51.636;4.948;2022-11-21T01:31:30;100680.92;;;11.62;61.20
59873;BME280;50750;51.636;4.948;2022-11-21T01:33:58;100684.97;;;11.62;61.12
59873;BME280;50750;51.636;4.948;2022-11-21T01:36:30;100684.98;;;11.61;61.22
59873;BME280;50750;51.636;4.948;2022-11-21T01:39:01;100686.38;;;11.61;61.19
59873;BME280;50750;51.636;4.948;2022-11-21T01:41:34;100684.80;;;11.61;61.14
59873;BME280;50750;51.636;4.948;2022-11-21T01:47:06;100694.48;;;11.60;61.30
59873;BME280;50750;51.636;4.948;2022-11-21T01:49:33;100699.39;;;11.60;61.18
59873;BME280;50750;51.636;4.948;2022-11-21T01:52:06;100695.19;;;11.61;61.30
59873;BME280;50750;51.636;4.948;2022-11-21T01:54:45;100698.88;;;11.60;61.22
59873;BME280;50750;51.636;4.948;2022-11-21T01:57:22;100705.71;;;11.60;61.22
59873;BME280;50750;51.636;4.948;2022-11-21T01:59:57;100710.46;;;11.60;61.35
59873;BME280;50750;51.636;4.948;2022-11-21T02:02:32;100711.87;;;11.60;61.31
59873;BME280;50750;51.636;4.948;2022-11-21T02:05:00;100711.69;;;11.60;61.27
59873;BME280;50750;51.636;4.948;2022-11-21T02:07:29;100707.98;;;11.61;61.25
59873;BME280;50750;51.636;4.948;2022-11-21T02:10:00;100702.30;;;11.62;61.28
59873;BME280;50750;51.636;4.948;2022-11-21T02:12:32;100702.27;;;11.63;61.21
59873;BME280;50750;51.636;4.948;2022-11-21T02:15:03;100702.44;;;11.63;61.15
59873;BME280;50750;51.636;4.948;2022-11-21T02:17:31;100701.33;;;11.65;61.20
59873;BME280;50750;51.636;4.948;2022-11-21T02:20:00;100702.35;;;11.65;61.22
59873;BME280;50750;51.636;4.948;2022-11-21T02:22:45;100703.56;;;11.66;61.13
59873;BME280;50750;51.636;4.948;2022-11-21T02:25:23;100707.92;;;11.67;61.15
59873;BME280;50750;51.636;4.948;2022-11-21T02:27:55;100709.51;;;11.67;61.06
59873;BME280;50750;51.636;4.948;2022-11-21T02:30:23;100714.40;;;11.67;61.09
59873;BME280;50750;51.636;4.948;2022-11-21T02:32:50;100710.39;;;11.67;61.06
59873;BME280;50750;51.636;4.948;2022-11-21T02:35:17;100706.13;;;11.68;61.11
59873;BME280;50750;51.636;4.948;2022-11-21T02:37:47;100706.81;;;11.68;61.04
59873;BME280;50750;51.636;4.948;2022-11-21T02:40:20;100702.98;;;11.68;61.02
59873;BME280;50750;51.636;4.948;2022-11-21T02:43:12;100693.69;;;11.67;61.05
59873;BME280;50750;51.636;4.948;2022-11-21T02:45:42;100692.83;;;11.67;60.97
59873;BME280;50750;51.636;4.948;2022-11-21T02:48:09;100694.95;;;11.67;60.95
59873;BME280;50750;51.636;4.948;2022-11-21T02:50:40;100694.09;;;11.66;61.03
59873;BME280;50750;51.636;4.948;2022-11-21T02:53:10;100696.55;;;11.66;61.08
59873;BME280;50750;51.636;4.948;2022-11-21T02:55:37;100701.65;;;11.66;61.08
59873;BME280;50750;51.636;4.948;2022-11-21T02:58:04;100706.21;;;11.66;61.07
59873;BME280;50750;51.636;4.948;2022-11-21T03:00:32;100706.77;;;11.65;61.05
59873;BME280;50750;51.636;4.948;2022-11-21T03:02:59;100705.54;;;11.65;61.10
59873;BME280;50750;51.636;4.948;2022-11-21T03:05:26;100702.94;;;11.64;61.01
59873;BME280;50750;51.636;4.948;2022-11-21T03:07:53;100704.88;;;11.64;61.02
59873;BME280;50750;51.636;4.948;2022-11-21T03:10:20;100699.98;;;11.64;61.08
59873;BME280;50750;51.636;4.948;2022-11-21T03:12:47;100689.29;;;11.64;61.06
59873;BME280;50750;51.636;4.948;2022-11-21T03:15:14;100684.92;;;11.63;61.09
59873;BME280;50750;51.636;4.948;2022-11-21T03:17:42;100688.42;;;11.63;61.05
59873;BME280;50750;51.636;4.948;2022-11-21T03:20:09;100687.40;;;11.62;61.10
59873;BME280;50750;51.636;4.948;2022-11-21T03:22:36;100685.14;;;11.62;61.09
59873;BME280;50750;51.636;4.948;2022-11-21T03:25:03;100684.25;;;11.62;61.07
59873;BME280;50750;51.636;4.948;2022-11-21T03:27:30;100685.49;;;11.62;61.10
59873;BME280;50750;51.636;4.948;2022-11-21T03:29:56;100686.91;;;11.61;61.00
59873;BME280;50750;51.636;4.948;2022-11-21T03:32:22;100693.93;;;11.61;61.06
59873;BME280;50750;51.636;4.948;2022-11-21T03:34:49;100695.70;;;11.60;61.13
59873;BME280;50750;51.636;4.948;2022-11-21T03:37:15;100694.83;;;11.60;61.10
59873;BME280;50750;51.636;4.948;2022-11-21T03:39:42;100689.74;;;11.60;61.01
59873;BME280;50750;51.636;4.948;2022-11-21T03:42:09;100686.95;;;11.60;61.08
59873;BME280;50750;51.636;4.948;2022-11-21T03:44:35;100682.39;;;11.60;61.10
59873;BME280;50750;51.636;4.948;2022-11-21T03:47:02;100679.77;;;11.60;61.10
59873;BME280;50750;51.636;4.948;2022-11-21T03:49:29;100676.80;;;11.59;61.02
59873;BME280;50750;51.636;4.948;2022-11-21T03:51:55;100682.62;;;11.59;61.04
59873;BME280;50750;51.636;4.948;2022-11-21T03:54:21;100686.30;;;11.59;61.01
59873;BME280;50750;51.636;4.948;2022-11-21T03:56:48;100676.86;;;11.58;61.05
59873;BME280;50750;51.636;4.948;2022-11-21T03:59:15;100671.41;;;11.58;61.05
59873;BME280;50750;51.636;4.948;2022-11-21T04:01:41;100667.73;;;11.58;60.93
59873;BME280;50750;51.636;4.948;2022-11-21T04:04:08;100663.01;;;11.58;61.09
59873;BME280;50750;51.636;4.948;2022-11-21T04:06:34;100662.83;;;11.58;61.00
59873;BME280;50750;51.636;4.948;2022-11-21T04:09:01;100662.65;;;11.58;61.11
59873;BME280;50750;51.636;4.948;2022-11-21T04:11:28;100664.23;;;11.58;61.01
59873;BME280;50750;51.636;4.948;2022-11-21T04:13:54;100663.13;;;11.59;61.05
59873;BME280;50750;51.636;4.948;2022-11-21T04:16:21;100664.13;;;11.61;61.01
59873;BME280;50750;51.636;4.948;2022-11-21T04:18:47;100660.39;;;11.62;60.98
59873;BME280;50750;51.636;4.948;2022-11-21T04:21:14;100662.83;;;11.62;60.93
59873;BME280;50750;51.636;4.948;2022-11-21T04:23:40;100664.55;;;11.64;61.05
59873;BME280;50750;51.636;4.948;2022-11-21T04:26:07;100664.88;;;11.64;60.96
59873;BME280;50750;51.636;4.948;2022-11-21T04:28:33;100661.70;;;11.64;60.94
59873;BME280;50750;51.636;4.948;2022-11-21T04:31:02;100659.91;;;11.65;60.87
59873;BME280;50750;51.636;4.948;2022-11-21T04:33:29;100660.79;;;11.65;60.90
59873;BME280;50750;51.636;4.948;2022-11-21T04:35:56;100664.14;;;11.64;60.91
59873;BME280;50750;51.636;4.948;2022-11-21T04:38:22;100667.81;;;11.65;60.82
59873;BME280;50750;51.636;4.948;2022-11-21T04:40:49;100667.11;;;11.65;60.87
59873;BME280;50750;51.636;4.948;2022-11-21T04:43:15;100665.36;;;11.65;60.86
59873;BME280;50750;51.636;4.948;2022-11-21T04:45:42;100663.11;;;11.64;60.85
59873;BME280;50750;51.636;4.948;2022-11-21T04:48:29;100656.77;;;11.65;60.93
59873;BME280;50750;51.636;4.948;2022-11-21T04:50:57;100641.91;;;11.64;60.87
59873;BME280;50750;51.636;4.948;2022-11-21T04:53:24;100643.70;;;11.63;60.75
59873;BME280;50750;51.636;4.948;2022-11-21T04:55:51;100643.34;;;11.63;60.86
59873;BME280;50750;51.636;4.948;2022-11-21T04:58:17;100640.55;;;11.63;60.82
59873;BME280;50750;51.636;4.948;2022-11-21T05:00:44;100636.00;;;11.63;60.85
59873;BME280;50750;51.636;4.948;2022-11-21T05:03:10;100634.42;;;11.62;60.87
59873;BME280;50750;51.636;4.948;2022-11-21T05:05:37;100627.61;;;11.62;60.87
59873;BME280;50750;51.636;4.948;2022-11-21T05:08:04;100621.49;;;11.61;60.89
59873;BME280;50750;51.636;4.948;2022-11-21T05:10:30;100617.64;;;11.61;60.85
59873;BME280;50750;51.636;4.948;2022-11-21T05:13:17;100623.48;;;11.60;60.88
59873;BME280;50750;51.636;4.948;2022-11-21T05:15:46;100624.70;;;11.60;60.89
59873;BME280;50750;51.636;4.948;2022-11-21T05:18:17;100621.41;;;11.59;60.91
59873;BME280;50750;51.636;4.948;2022-11-21T05:20:45;100613.88;;;11.59;60.90
59873;BME280;50750;51.636;4.948;2022-11-21T05:23:11;100616.69;;;11.59;60.89
59873;BME280;50750;51.636;4.948;2022-11-21T05:25:38;100613.00;;;11.59;60.92
59873;BME280;50750;51.636;4.948;2022-11-21T05:28:05;100607.93;;;11.58;61.00
59873;BME280;50750;51.636;4.948;2022-11-21T05:30:31;100604.61;;;11.58;60.91
59873;BME280;50750;51.636;4.948;2022-11-21T05:32:58;100596.91;;;11.57;60.92
59873;BME280;50750;51.636;4.948;2022-11-21T05:35:24;100594.80;;;11.58;60.85
59873;BME280;50750;51.636;4.948;2022-11-21T05:37:55;100591.46;;;11.57;60.90
59873;BME280;50750;51.636;4.948;2022-11-21T05:40:23;100586.75;;;11.57;60.96
59873;BME280;50750;51.636;4.948;2022-11-21T05:42:50;100585.17;;;11.57;60.91
59873;BME280;50750;51.636;4.948;2022-11-21T05:45:35;100583.29;;;11.56;61.01
59873;BME280;50750;51.636;4.948;2022-11-21T05:48:02;100583.64;;;11.56;61.00
59873;BME280;50750;51.636;4.948;2022-11-21T05:50:35;100579.61;;;11.56;60.93
59873;BME280;50750;51.636;4.948;2022-11-21T05:53:05;100586.63;;;11.56;60.98
59873;BME280;50750;51.636;4.948;2022-11-21T05:55:34;100586.99;;;11.55;60.94
59873;BME280;50750;51.636;4.948;2022-11-21T05:58:01;100578.75;;;11.55;60.99
59873;BME280;50750;51.636;4.948;2022-11-21T06:00:27;100568.41;;;11.55;60.98
59873;BME280;50750;51.636;4.948;2022-11-21T06:02:54;100559.47;;;11.55;60.94
59873;BME280;50750;51.636;4.948;2022-11-21T06:05:41;100564.73;;;11.55;61.08
59873;BME280;50750;51.636;4.948;2022-11-21T06:08:07;100569.11;;;11.55;60.94
59873;BME280;50750;51.636;4.948;2022-11-21T06:10:34;100561.22;;;11.56;61.00
59873;BME280;50750;51.636;4.948;2022-11-21T06:13:02;100556.48;;;11.55;61.01
59873;BME280;50750;51.636;4.948;2022-11-21T06:15:29;100552.09;;;11.55;61.11
59873;BME280;50750;51.636;4.948;2022-11-21T06:17:55;100551.90;;;11.56;61.15
59873;BME280;50750;51.636;4.948;2022-11-21T06:20:25;100554.13;;;11.57;60.97
59873;BME280;50750;51.636;4.948;2022-11-21T06:22:51;100550.77;;;11.58;60.97
59873;BME280;50750;51.636;4.948;2022-11-21T06:25:18;100546.86;;;11.59;60.93
59873;BME280;50750;51.636;4.948;2022-11-21T06:27:45;100546.98;;;11.61;61.04
59873;BME280;50750;51.636;4.948;2022-11-21T06:30:12;100545.37;;;11.62;60.91
59873;BME280;50750;51.636;4.948;2022-11-21T06:32:38;100544.98;;;11.62;61.00
59873;BME280;50750;51.636;4.948;2022-11-21T06:35:05;100540.40;;;11.63;60.89
59873;BME280;50750;51.636;4.948;2022-11-21T06:37:32;100544.60;;;11.64;61.02
59873;BME280;50750;51.636;4.948;2022-11-21T06:39:59;100547.94;;;11.63;60.93
59873;BME280;50750;51.636;4.948;2022-11-21T06:42:25;100543.90;;;11.63;60.86
59873;BME280;50750;51.636;4.948;2022-11-21T06:44:52;100538.45;;;11.64;60.89
59873;BME280;50750;51.636;4.948;2022-11-21T06:47:19;100534.60;;;11.63;60.81
59873;BME280;50750;51.636;4.948;2022-11-21T06:49:46;100531.81;;;11.63;60.89
59873;BME280;50750;51.636;4.948;2022-11-21T06:52:12;100529.88;;;11.63;60.90
59873;BME280;50750;51.636;4.948;2022-11-21T06:54:39;100530.77;;;11.63;61.01
59873;BME280;50750;51.636;4.948;2022-11-21T06:57:05;100527.27;;;11.62;60.93
59873;BME280;50750;51.636;4.948;2022-11-21T06:59:32;100519.05;;;11.62;60.93
59873;BME280;50750;51.636;4.948;2022-11-21T07:01:59;100516.60;;;11.62;60.96
59873;BME280;50750;51.636;4.948;2022-11-21T07:04:26;100518.19;;;11.61;60.97
59873;BME280;50750;51.636;4.948;2022-11-21T07:06:52;100522.77;;;11.61;60.97
59873;BME280;50750;51.636;4.948;2022-11-21T07:09:19;100520.33;;;11.60;60.96
59873;BME280;50750;51.636;4.948;2022-11-21T07:11:45;100520.33;;;11.60;60.89
59873;BME280;50750;51.636;4.948;2022-11-21T07:14:16;100514.56;;;11.60;60.96
59873;BME280;50750;51.636;4.948;2022-11-21T07:16:43;100513.86;;;11.60;61.06
59873;BME280;50750;51.636;4.948;2022-11-21T07:19:09;100514.26;;;11.59;60.96
59873;BME280;50750;51.636;4.948;2022-11-21T07:21:37;100510.77;;;11.59;61.01
59873;BME280;50750;51.636;4.948;2022-11-21T07:24:04;100511.64;;;11.59;60.99
59873;BME280;50750;51.636;4.948;2022-11-21T07:26:31;100515.88;;;11.58;61.07
59873;BME280;50750;51.636;4.948;2022-11-21T07:28:57;100520.27;;;11.58;61.06
59873;BME280;50750;51.636;4.948;2022-11-21T07:31:24;100520.09;;;11.58;61.14
59873;BME280;50750;51.636;4.948;2022-11-21T07:33:50;100521.85;;;11.58;61.12
59873;BME280;50750;51.636;4.948;2022-11-21T07:36:17;100524.84;;;11.57;61.12
59873;BME280;50750;51.636;4.948;2022-11-21T07:38:45;100525.91;;;11.57;61.12
59873;BME280;50750;51.636;4.948;2022-11-21T07:41:12;100529.77;;;11.57;61.07
59873;BME280;50750;51.636;4.948;2022-11-21T07:43:38;100530.66;;;11.57;61.10
59873;BME280;50750;51.636;4.948;2022-11-21T07:46:05;100526.09;;;11.57;61.06
59873;BME280;50750;51.636;4.948;2022-11-21T07:48:31;100526.27;;;11.56;61.16
59873;BME280;50750;51.636;4.948;2022-11-21T07:50:58;100511.91;;;11.56;61.05
59873;BME280;50750;51.636;4.948;2022-11-21T07:53:24;100504.05;;;11.56;61.11
59873;BME280;50750;51.636;4.948;2022-11-21T07:55:50;100502.64;;;11.56;61.11
59873;BME280;50750;51.636;4.948;2022-11-21T07:58:17;100500.89;;;11.56;61.17
59873;BME280;50750;51.636;4.948;2022-11-21T08:00:44;100503.86;;;11.55;61.17
59873;BME280;50750;51.636;4.948;2022-11-21T08:03:11;100503.88;;;11.55;61.15
59873;BME280;50750;51.636;4.948;2022-11-21T08:05:40;100500.19;;;11.56;61.00
59873;BME280;50750;51.636;4.948;2022-11-21T08:08:08;100496.67;;;11.56;61.17
59873;BME280;50750;51.636;4.948;2022-11-21T08:10:40;100502.73;;;11.58;61.16
59873;BME280;50750;51.636;4.948;2022-11-21T08:13:08;100496.04;;;11.59;61.07
59873;BME280;50750;51.636;4.948;2022-11-21T08:15:35;100488.65;;;11.59;61.11
59873;BME280;50750;51.636;4.948;2022-11-21T08:18:09;100484.18;;;11.61;61.08
59873;BME280;50750;51.636;4.948;2022-11-21T08:20:37;100479.42;;;11.62;61.07
59873;BME280;50750;51.636;4.948;2022-11-21T08:23:04;100480.61;;;11.63;60.99
59873;BME280;50750;51.636;4.948;2022-11-21T08:25:33;100471.99;;;11.64;61.07
59873;BME280;50750;51.636;4.948;2022-11-21T08:28:00;100467.23;;;11.64;61.06
59873;BME280;50750;51.636;4.948;2022-11-21T08:30:28;100461.41;;;11.65;61.09
59873;BME280;50750;51.636;4.948;2022-11-21T08:32:58;100458.96;;;11.64;60.98
59873;BME280;50750;51.636;4.948;2022-11-21T08:35:25;100459.30;;;11.65;60.99
59873;BME280;50750;51.636;4.948;2022-11-21T08:37:59;100461.07;;;11.65;61.05
59873;BME280;50750;51.636;4.948;2022-11-21T08:40:29;100460.39;;;11.64;61.04
59873;BME280;50750;51.636;4.948;2022-11-21T08:42:57;100459.88;;;11.64;60.99
59873;BME280;50750;51.636;4.948;2022-11-21T08:45:23;100460.13;;;11.66;61.09
59873;BME280;50750;51.636;4.948;2022-11-21T08:47:52;100457.43;;;11.72;61.09
59873;BME280;50750;51.636;4.948;2022-11-21T08:50:19;100452.27;;;11.78;60.99
59873;BME280;50750;51.636;4.948;2022-11-21T08:52:46;100450.59;;;11.81;60.93
59873;BME280;50750;51.636;4.948;2022-11-21T08:55:12;100448.55;;;11.83;60.77
59873;BME280;50750;51.636;4.948;2022-11-21T08:57:40;100446.14;;;11.86;60.77
59873;BME280;50750;51.636;4.948;2022-11-21T09:00:08;100434.54;;;11.91;60.73
59873;BME280;50750;51.636;4.948;2022-11-21T09:02:37;100434.18;;;11.96;60.66
59873;BME280;50750;51.636;4.948;2022-11-21T09:05:04;100432.52;;;11.98;60.45
59873;BME280;50750;51.636;4.948;2022-11-21T09:07:31;100429.65;;;11.99;60.45
59873;BME280;50750;51.636;4.948;2022-11-21T09:09:58;100425.59;;;12.00;60.27
59873;BME280;50750;51.636;4.948;2022-11-21T09:12:24;100424.35;;;12.00;60.51
59873;BME280;50750;51.636;4.948;2022-11-21T09:14:51;100422.95;;;12.00;60.49
59873;BME280;50750;51.636;4.948;2022-11-21T09:17:37;100420.89;;;11.99;60.54
59873;BME280;50750;51.636;4.948;2022-11-21T09:20:22;100428.09;;;11.99;60.50
59873;BME280;50750;51.636;4.948;2022-11-21T09:22:48;100429.50;;;11.99;60.52
59873;BME280;50750;51.636;4.948;2022-11-21T09:25:15;100419.86;;;11.99;60.41
59873;BME280;50750;51.636;4.948;2022-11-21T09:27:42;100419.38;;;11.97;60.39
59873;BME280;50750;51.636;4.948;2022-11-21T09:30:09;100412.95;;;11.96;60.37
59873;BME280;50750;51.636;4.948;2022-11-21T09:32:35;100411.41;;;11.94;60.26
59873;BME280;50750;51.636;4.948;2022-11-21T09:35:03;100414.80;;;11.94;60.30
59873;BME280;50750;51.636;4.948;2022-11-21T09:37:38;100408.88;;;11.93;60.38
59873;BME280;50750;51.636;4.948;2022-11-21T09:40:05;100402.41;;;11.92;60.31
59873;BME280;50750;51.636;4.948;2022-11-21T09:45:32;100396.02;;;11.90;60.51
59873;BME280;50750;51.636;4.948;2022-11-21T09:48:08;100396.60;;;11.88;60.57
59873;BME280;50750;51.636;4.948;2022-11-21T09:50:41;100389.48;;;11.87;60.52
59873;BME280;50750;51.636;4.948;2022-11-21T09:53:38;100388.13;;;11.86;60.46
59873;BME280;50750;51.636;4.948;2022-11-21T09:56:09;100390.77;;;11.85;60.58
59873;BME280;50750;51.636;4.948;2022-11-21T10:01:11;100392.58;;;11.83;60.54
59873;BME280;50750;51.636;4.948;2022-11-21T10:03:41;100392.63;;;11.83;60.71
59873;BME280;50750;51.636;4.948;2022-11-21T10:06:19;100391.20;;;11.83;60.67
59873;BME280;50750;51.636;4.948;2022-11-21T10:11:59;100377.08;;;11.81;60.67
59873;BME280;50750;51.636;4.948;2022-11-21T10:17:27;100356.95;;;11.80;60.68
59873;BME280;50750;51.636;4.948;2022-11-21T10:20:52;100349.60;;;11.79;60.79
59873;BME280;50750;51.636;4.948;2022-11-21T10:31:39;100340.06;;;11.77;60.80
59873;BME280;50750;51.636;4.948;2022-11-21T10:34:13;100342.52;;;11.77;60.87
59873;BME280;50750;51.636;4.948;2022-11-21T10:36:44;100336.92;;;11.76;60.90
59873;BME280;50750;51.636;4.948;2022-11-21T10:39:47;100336.94;;;11.76;60.90
59873;BME280;50750;51.636;4.948;2022-11-21T10:42:27;100337.13;;;11.76;60.92
59873;BME280;50750;51.636;4.948;2022-11-21T10:44:58;100328.04;;;11.75;60.89
59873;BME280;50750;51.636;4.948;2022-11-21T10:47:50;100321.14;;;11.76;60.89
59873;BME280;50750;51.636;4.948;2022-11-21T10:50:45;100318.20;;;11.75;60.92
59873;BME280;50750;51.636;4.948;2022-11-21T10:53:20;100311.16;;;11.76;60.84
59873;BME280;50750;51.636;4.948;2022-11-21T10:56:10;100310.95;;;11.77;60.91
59873;BME280;50750;51.636;4.948;2022-11-21T10:58:49;100309.56;;;11.76;60.91
59873;BME280;50750;51.636;4.948;2022-11-21T11:03:45;100301.98;;;11.77;60.98
59873;BME280;50750;51.636;4.948;2022-11-21T11:06:12;100296.90;;;11.77;60.92
59873;BME280;50750;51.636;4.948;2022-11-21T11:08:51;100294.10;;;11.77;60.86
59873;BME280;50750;51.636;4.948;2022-11-21T11:11:22;100290.59;;;11.77;60.91
59873;BME280;50750;51.636;4.948;2022-11-21T11:16:23;100277.42;;;11.77;61.00
59873;BME280;50750;51.636;4.948;2022-11-21T11:21:41;100261.27;;;11.78;60.99
59873;BME280;50750;51.636;4.948;2022-11-21T11:29:22;100241.27;;;11.78;60.82
59873;BME280;50750;51.636;4.948;2022-11-21T11:34:23;100226.00;;;11.78;60.88
59873;BME280;50750;51.636;4.948;2022-11-21T11:39:39;100214.08;;;11.78;60.91
59873;BME280;50750;51.636;4.948;2022-11-21T11:47:55;100193.55;;;11.78;60.92
59873;BME280;50750;51.636;4.948;2022-11-21T11:50:45;100187.58;;;11.78;60.95
59873;BME280;50750;51.636;4.948;2022-11-21T11:53:37;100177.92;;;11.78;60.89
59873;BME280;50750;51.636;4.948;2022-11-21T11:56:15;100171.10;;;11.78;61.02
59873;BME280;50750;51.636;4.948;2022-11-21T12:01:40;100163.90;;;11.78;61.02
59873;BME280;50750;51.636;4.948;2022-11-21T12:04:19;100157.92;;;11.78;61.03
59873;BME280;50750;51.636;4.948;2022-11-21T12:07:05;100155.46;;;11.78;60.99
59873;BME280;50750;51.636;4.948;2022-11-21T12:09:57;100149.45;;;11.79;60.98
59873;BME280;50750;51.636;4.948;2022-11-21T12:12:37;100138.40;;;11.79;61.12
59873;BME280;50750;51.636;4.948;2022-11-21T12:15:26;100126.48;;;11.79;61.01
59873;BME280;50750;51.636;4.948;2022-11-21T12:23:30;100105.91;;;11.80;61.03
59873;BME280;50750;51.636;4.948;2022-11-21T12:45:45;100064.35;;;11.84;60.89
59873;BME280;50750;51.636;4.948;2022-11-21T12:48:16;100052.75;;;11.84;61.00
59873;BME280;50750;51.636;4.948;2022-11-21T13:00:05;100001.35;;;11.84;60.95
59873;BME280;50750;51.636;4.948;2022-11-21T13:02:49;99986.61;;;11.84;60.96
59873;BME280;50750;51.636;4.948;2022-11-21T13:05:28;99988.36;;;11.84;60.89
59873;BME280;50750;51.636;4.948;2022-11-21T13:08:07;99992.22;;;11.85;60.92
59873;BME280;50750;51.636;4.948;2022-11-21T13:10:37;99988.52;;;11.85;60.95
59873;BME280;50750;51.636;4.948;2022-11-21T13:20:47;99976.57;;;11.86;60.88
59873;BME280;50750;51.636;4.948;2022-11-21T13:23:35;99974.98;;;11.86;60.97
59873;BME280;50750;51.636;4.948;2022-11-21T13:29:14;99960.86;;;11.88;60.96
59873;BME280;50750;51.636;4.948;2022-11-21T13:31:41;99959.02;;;11.90;60.95
59873;BME280;50750;51.636;4.948;2022-11-21T13:37:00;99943.25;;;11.93;60.77
59873;BME280;50750;51.636;4.948;2022-11-21T13:39:29;99939.55;;;11.93;60.84
59873;BME280;50750;51.636;4.948;2022-11-21T13:42:00;99934.52;;;11.95;60.84
59873;BME280;50750;51.636;4.948;2022-11-21T13:44:45;99931.69;;;11.96;60.91
59873;BME280;50750;51.636;4.948;2022-11-21T13:49:58;99916.55;;;11.97;60.82
59873;BME280;50750;51.636;4.948;2022-11-21T14:06:38;99893.89;;;11.97;60.85
59873;BME280;50750;51.636;4.948;2022-11-21T14:11:47;99891.11;;;11.97;60.96
59873;BME280;50750;51.636;4.948;2022-11-21T14:14:47;99884.30;;;11.96;61.01
59873;BME280;50750;51.636;4.948;2022-11-21T14:17:26;99879.23;;;11.96;60.94
59873;BME280;50750;51.636;4.948;2022-11-21T14:20:00;99875.73;;;11.96;60.88
59873;BME280;50750;51.636;4.948;2022-11-21T14:22:39;99870.49;;;11.95;61.03
59873;BME280;50750;51.636;4.948;2022-11-21T14:25:14;99859.99;;;11.94;61.07
59873;BME280;50750;51.636;4.948;2022-11-21T14:27:46;99852.80;;;11.94;61.03
59873;BME280;50750;51.636;4.948;2022-11-21T14:30:33;99851.77;;;11.94;61.06
59873;BME280;50750;51.636;4.948;2022-11-21T14:33:22;99847.93;;;11.94;61.01
59873;BME280;50750;51.636;4.948;2022-11-21T14:36:20;99840.75;;;11.93;61.15
59873;BME280;50750;51.636;4.948;2022-11-21T14:38:58;99836.17;;;11.94;61.12
59873;BME280;50750;51.636;4.948;2022-11-21T14:41:28;99831.98;;;11.93;61.23
59873;BME280;50750;51.636;4.948;2022-11-21T14:46:24;99820.98;;;11.92;61.16
59873;BME280;50750;51.636;4.948;2022-11-21T14:48:51;99812.89;;;11.92;61.27
59873;BME280;50750;51.636;4.948;2022-11-21T14:51:23;99801.16;;;11.92;61.23
59873;BME280;50750;51.636;4.948;2022-11-21T14:53:51;99800.27;;;11.92;61.25
59873;BME280;50750;51.636;4.948;2022-11-21T14:56:23;99797.66;;;11.92;61.19
59873;BME280;50750;51.636;4.948;2022-11-21T14:58:52;99796.64;;;11.92;61.17
59873;BME280;50750;51.636;4.948;2022-11-21T15:01:24;99794.50;;;11.92;61.31
59873;BME280;50750;51.636;4.948;2022-11-21T15:04:12;99783.47;;;11.91;61.31
59873;BME280;50750;51.636;4.948;2022-11-21T15:06:42;99779.92;;;11.92;61.26